Terminal Aerodrome Forecast
Issued by NWS

Home | Current Version | Previous Version | Text Only | Print | Product List | Glossary On
Versions: 1 2 3 4 5 6 7 8 9 10 11 12 13 14 15 16 17 18 19 20 21 22 23 24 25 26
000
FTUS44 KOUN 212335
TAFHBR
TAF
KHBR 212335Z 2200/2224 19020G27KT P6SM BKN035 OVC050
      TEMPO 2200/2201 VRB25G45KT 1SM TSRA BKN020CB OVC030
     FM220100 36020G27KT P6SM BKN250
     FM220500 01014KT P6SM SKC
     FM221200 32007KT P6SM SKC=

USA.gov is the U.S. government's official web portal to all federal, state and local government web resources and services.